sensor_id;sensor_type;location;lat;lon;timestamp;pressure;altitude;pressure_sealevel;temperature;humidity
47742;BME280;33504;52.066;6.096;2023-03-04T00:01:08;102542.98;;;8.87;37.32
47742;BME280;33504;52.066;6.096;2023-03-04T00:03:36;102546.11;;;8.88;37.28
47742;BME280;33504;52.066;6.096;2023-03-04T00:06:04;102548.36;;;8.90;37.37
47742;BME280;33504;52.066;6.096;2023-03-04T00:08:31;102549.38;;;8.82;37.50
47742;BME280;33504;52.066;6.096;2023-03-04T00:10:57;102546.54;;;8.78;37.56
47742;BME280;33504;52.066;6.096;2023-03-04T00:13:24;102550.28;;;8.79;37.48
47742;BME280;33504;52.066;6.096;2023-03-04T00:15:52;102548.43;;;8.84;37.31
47742;BME280;33504;52.066;6.096;2023-03-04T00:18:19;102550.79;;;8.89;37.45
47742;BME280;33504;52.066;6.096;2023-03-04T00:20:46;102551.31;;;8.76;37.67
47742;BME280;33504;52.066;6.096;2023-03-04T00:23:13;102546.58;;;8.79;37.64
47742;BME280;33504;52.066;6.096;2023-03-04T00:25:40;102546.36;;;8.77;37.74
47742;BME280;33504;52.066;6.096;2023-03-04T00:28:07;102544.82;;;8.54;38.19
47742;BME280;33504;52.066;6.096;2023-03-04T00:30:34;102542.68;;;8.65;37.89
47742;BME280;33504;52.066;6.096;2023-03-04T00:33:02;102544.69;;;8.50;38.33
47742;BME280;33504;52.066;6.096;2023-03-04T00:35:29;102540.93;;;8.47;38.24
47742;BME280;33504;52.066;6.096;2023-03-04T00:37:56;102544.90;;;8.51;38.13
47742;BME280;33504;52.066;6.096;2023-03-04T00:40:23;102539.98;;;8.13;38.54
47742;BME280;33504;52.066;6.096;2023-03-04T00:42:50;102536.17;;;8.27;38.61
47742;BME280;33504;52.066;6.096;2023-03-04T00:45:17;102528.78;;;8.18;38.52
47742;BME280;33504;52.066;6.096;2023-03-04T00:47:44;102527.80;;;8.08;38.81
47742;BME280;33504;52.066;6.096;2023-03-04T00:50:12;102530.01;;;8.08;38.85
47742;BME280;33504;52.066;6.096;2023-03-04T00:52:39;102529.62;;;8.26;38.58
47742;BME280;33504;52.066;6.096;2023-03-04T00:55:07;102531.63;;;8.33;38.56
47742;BME280;33504;52.066;6.096;2023-03-04T00:57:34;102533.00;;;8.40;38.35
47742;BME280;33504;52.066;6.096;2023-03-04T01:00:02;102532.76;;;8.44;38.34
47742;BME280;33504;52.066;6.096;2023-03-04T01:02:32;102533.29;;;8.35;38.52
47742;BME280;33504;52.066;6.096;2023-03-04T01:04:59;102535.42;;;8.42;38.39
47742;BME280;33504;52.066;6.096;2023-03-04T01:07:25;102537.25;;;8.72;38.29
47742;BME280;33504;52.066;6.096;2023-03-04T01:09:53;102540.83;;;8.36;38.73
47742;BME280;33504;52.066;6.096;2023-03-04T01:12:20;102540.02;;;8.76;38.92
47742;BME280;33504;52.066;6.096;2023-03-04T01:14:47;102542.17;;;8.30;38.84
47742;BME280;33504;52.066;6.096;2023-03-04T01:17:15;102541.38;;;8.38;38.67
47742;BME280;33504;52.066;6.096;2023-03-04T01:19:42;102535.73;;;8.37;38.68
47742;BME280;33504;52.066;6.096;2023-03-04T01:22:10;102535.06;;;8.33;38.61
47742;BME280;33504;52.066;6.096;2023-03-04T01:24:37;102534.94;;;8.21;38.84
47742;BME280;33504;52.066;6.096;2023-03-04T01:27:04;102531.45;;;8.16;38.91
47742;BME280;33504;52.066;6.096;2023-03-04T01:29:31;102528.31;;;8.48;39.25
47742;BME280;33504;52.066;6.096;2023-03-04T01:31:58;102525.11;;;8.17;38.83
47742;BME280;33504;52.066;6.096;2023-03-04T01:34:25;102527.30;;;8.18;39.02
47742;BME280;33504;52.066;6.096;2023-03-04T01:36:52;102527.12;;;8.53;38.87
47742;BME280;33504;52.066;6.096;2023-03-04T01:39:19;102522.80;;;8.25;39.04
47742;BME280;33504;52.066;6.096;2023-03-04T01:41:46;102519.59;;;7.91;39.47
47742;BME280;33504;52.066;6.096;2023-03-04T01:44:13;102513.05;;;8.18;39.13
47742;BME280;33504;52.066;6.096;2023-03-04T01:46:45;102511.49;;;8.20;38.99
47742;BME280;33504;52.066;6.096;2023-03-04T01:49:13;102511.76;;;8.23;39.45
47742;BME280;33504;52.066;6.096;2023-03-04T01:51:42;102505.19;;;8.12;39.59
47742;BME280;33504;52.066;6.096;2023-03-04T01:54:10;102507.18;;;7.76;39.31
47742;BME280;33504;52.066;6.096;2023-03-04T01:56:38;102502.81;;;8.13;39.34
47742;BME280;33504;52.066;6.096;2023-03-04T01:59:08;102505.29;;;8.08;39.02
47742;BME280;33504;52.066;6.096;2023-03-04T02:01:36;102503.46;;;8.11;38.57
47742;BME280;33504;52.066;6.096;2023-03-04T02:04:04;102495.72;;;8.09;39.01
47742;BME280;33504;52.066;6.096;2023-03-04T02:06:31;102503.32;;;7.77;38.73
47742;BME280;33504;52.066;6.096;2023-03-04T02:08:59;102499.57;;;7.52;38.89
47742;BME280;33504;52.066;6.096;2023-03-04T02:11:26;102495.29;;;7.88;38.69
47742;BME280;33504;52.066;6.096;2023-03-04T02:13:54;102491.05;;;7.96;38.73
47742;BME280;33504;52.066;6.096;2023-03-04T02:16:21;102485.17;;;8.12;38.50
47742;BME280;33504;52.066;6.096;2023-03-04T02:18:48;102483.45;;;8.26;38.48
47742;BME280;33504;52.066;6.096;2023-03-04T02:21:19;102482.82;;;8.31;38.31
47742;BME280;33504;52.066;6.096;2023-03-04T02:23:55;102481.17;;;8.47;38.15
47742;BME280;33504;52.066;6.096;2023-03-04T02:26:27;102479.76;;;8.35;38.38
47742;BME280;33504;52.066;6.096;2023-03-04T02:28:57;102477.41;;;8.02;38.25
47742;BME280;33504;52.066;6.096;2023-03-04T02:31:27;102474.31;;;8.59;38.27
47742;BME280;33504;52.066;6.096;2023-03-04T02:33:58;102469.40;;;8.18;38.39
47742;BME280;33504;52.066;6.096;2023-03-04T02:36:27;102472.79;;;8.08;38.70
47742;BME280;33504;52.066;6.096;2023-03-04T02:38:59;102470.33;;;8.09;38.62
47742;BME280;33504;52.066;6.096;2023-03-04T02:41:28;102466.55;;;7.81;38.70
47742;BME280;33504;52.066;6.096;2023-03-04T02:43:55;102465.39;;;7.54;39.03
47742;BME280;33504;52.066;6.096;2023-03-04T02:46:22;102464.11;;;7.44;39.31
47742;BME280;33504;52.066;6.096;2023-03-04T02:48:49;102461.35;;;7.63;39.11
47742;BME280;33504;52.066;6.096;2023-03-04T02:51:17;102461.43;;;7.47;39.40
47742;BME280;33504;52.066;6.096;2023-03-04T02:53:45;102457.69;;;7.76;38.55
47742;BME280;33504;52.066;6.096;2023-03-04T02:56:12;102457.02;;;8.23;38.22
47742;BME280;33504;52.066;6.096;2023-03-04T02:58:39;102458.24;;;8.23;38.34
47742;BME280;33504;52.066;6.096;2023-03-04T03:01:07;102453.98;;;8.19;38.63
47742;BME280;33504;52.066;6.096;2023-03-04T03:03:35;102455.87;;;8.23;38.75
47742;BME280;33504;52.066;6.096;2023-03-04T03:06:03;102451.69;;;8.18;38.77
47742;BME280;33504;52.066;6.096;2023-03-04T03:08:30;102450.36;;;8.40;38.47
47742;BME280;33504;52.066;6.096;2023-03-04T03:10:58;102450.13;;;8.25;38.27
47742;BME280;33504;52.066;6.096;2023-03-04T03:13:25;102449.49;;;7.98;38.39
47742;BME280;33504;52.066;6.096;2023-03-04T03:15:51;102445.68;;;8.47;38.33
47742;BME280;33504;52.066;6.096;2023-03-04T03:18:18;102443.63;;;8.23;38.35
47742;BME280;33504;52.066;6.096;2023-03-04T03:20:45;102438.22;;;7.95;38.56
47742;BME280;33504;52.066;6.096;2023-03-04T03:23:12;102437.16;;;8.16;38.66
47742;BME280;33504;52.066;6.096;2023-03-04T03:25:39;102433.24;;;8.26;38.59
47742;BME280;33504;52.066;6.096;2023-03-04T03:28:06;102430.04;;;7.67;39.08
47742;BME280;33504;52.066;6.096;2023-03-04T03:30:33;102427.49;;;7.98;39.08
47742;BME280;33504;52.066;6.096;2023-03-04T03:33:00;102425.21;;;8.29;38.55
47742;BME280;33504;52.066;6.096;2023-03-04T03:35:27;102422.55;;;8.14;38.49
47742;BME280;33504;52.066;6.096;2023-03-04T03:37:54;102422.78;;;8.38;38.62
47742;BME280;33504;52.066;6.096;2023-03-04T03:40:21;102423.63;;;8.49;38.46
47742;BME280;33504;52.066;6.096;2023-03-04T03:42:48;102425.41;;;8.30;38.36
47742;BME280;33504;52.066;6.096;2023-03-04T03:45:14;102423.04;;;8.04;38.32
47742;BME280;33504;52.066;6.096;2023-03-04T03:47:41;102419.61;;;7.41;39.04
47742;BME280;33504;52.066;6.096;2023-03-04T03:50:09;102421.93;;;8.15;38.62
47742;BME280;33504;52.066;6.096;2023-03-04T03:52:36;102422.65;;;8.31;38.47
47742;BME280;33504;52.066;6.096;2023-03-04T03:55:04;102422.41;;;8.36;38.33
47742;BME280;33504;52.066;6.096;2023-03-04T03:57:31;102424.94;;;7.85;38.43
47742;BME280;33504;52.066;6.096;2023-03-04T03:59:58;102421.34;;;8.04;38.53
47742;BME280;33504;52.066;6.096;2023-03-04T04:02:25;102422.68;;;8.34;38.43
47742;BME280;33504;52.066;6.096;2023-03-04T04:04:52;102423.96;;;8.30;38.45
47742;BME280;33504;52.066;6.096;2023-03-04T04:07:19;102426.40;;;8.05;38.53
47742;BME280;33504;52.066;6.096;2023-03-04T04:09:46;102427.99;;;8.24;38.65
47742;BME280;33504;52.066;6.096;2023-03-04T04:12:14;102426.44;;;8.16;38.70
47742;BME280;33504;52.066;6.096;2023-03-04T04:14:43;102426.38;;;7.93;39.10
47742;BME280;33504;52.066;6.096;2023-03-04T04:17:10;102426.23;;;7.71;39.13
47742;BME280;33504;52.066;6.096;2023-03-04T04:19:37;102426.08;;;7.86;38.91
47742;BME280;33504;52.066;6.096;2023-03-04T04:22:04;102422.92;;;7.90;39.27
47742;BME280;33504;52.066;6.096;2023-03-04T04:24:32;102423.30;;;8.08;38.95
47742;BME280;33504;52.066;6.096;2023-03-04T04:26:59;102422.30;;;8.12;38.97
47742;BME280;33504;52.066;6.096;2023-03-04T04:29:26;102419.87;;;7.84;39.55
47742;BME280;33504;52.066;6.096;2023-03-04T04:31:53;102421.36;;;7.86;39.51
47742;BME280;33504;52.066;6.096;2023-03-04T04:34:20;102421.14;;;7.55;39.67
47742;BME280;33504;52.066;6.096;2023-03-04T04:36:47;102421.96;;;7.72;39.76
47742;BME280;33504;52.066;6.096;2023-03-04T04:39:13;102426.01;;;7.79;39.73
47742;BME280;33504;52.066;6.096;2023-03-04T04:41:42;102425.67;;;7.82;39.77
47742;BME280;33504;52.066;6.096;2023-03-04T04:44:09;102425.77;;;7.72;40.06
47742;BME280;33504;52.066;6.096;2023-03-04T04:46:37;102429.38;;;8.04;39.93
47742;BME280;33504;52.066;6.096;2023-03-04T04:49:05;102429.04;;;7.82;39.89
47742;BME280;33504;52.066;6.096;2023-03-04T04:51:34;102427.98;;;8.00;39.51
47742;BME280;33504;52.066;6.096;2023-03-04T04:54:01;102426.34;;;7.73;39.53
47742;BME280;33504;52.066;6.096;2023-03-04T04:56:29;102427.09;;;7.64;39.52
47742;BME280;33504;52.066;6.096;2023-03-04T04:58:58;102423.96;;;7.43;39.30
47742;BME280;33504;52.066;6.096;2023-03-04T05:01:27;102426.71;;;7.84;39.19
47742;BME280;33504;52.066;6.096;2023-03-04T05:03:54;102426.05;;;8.29;39.00
47742;BME280;33504;52.066;6.096;2023-03-04T05:06:22;102423.10;;;8.07;38.92
47742;BME280;33504;52.066;6.096;2023-03-04T05:08:49;102426.87;;;8.05;38.88
47742;BME280;33504;52.066;6.096;2023-03-04T05:11:17;102423.55;;;8.07;38.63
47742;BME280;33504;52.066;6.096;2023-03-04T05:13:44;102427.16;;;7.94;38.94
47742;BME280;33504;52.066;6.096;2023-03-04T05:16:12;102428.37;;;7.92;38.96
47742;BME280;33504;52.066;6.096;2023-03-04T05:18:40;102428.74;;;7.70;39.00
47742;BME280;33504;52.066;6.096;2023-03-04T05:21:06;102433.45;;;7.90;39.15
47742;BME280;33504;52.066;6.096;2023-03-04T05:23:35;102432.62;;;7.86;39.52
47742;BME280;33504;52.066;6.096;2023-03-04T05:26:04;102433.66;;;7.70;39.63
47742;BME280;33504;52.066;6.096;2023-03-04T05:28:32;102434.32;;;7.85;39.75
47742;BME280;33504;52.066;6.096;2023-03-04T05:30:59;102432.24;;;7.98;39.54
47742;BME280;33504;52.066;6.096;2023-03-04T05:33:27;102428.42;;;7.82;39.86
47742;BME280;33504;52.066;6.096;2023-03-04T05:35:54;102426.60;;;7.52;40.17
47742;BME280;33504;52.066;6.096;2023-03-04T05:38:21;102428.20;;;7.86;40.20
47742;BME280;33504;52.066;6.096;2023-03-04T05:40:48;102429.30;;;7.90;40.14
47742;BME280;33504;52.066;6.096;2023-03-04T05:43:15;102429.68;;;7.80;40.44
47742;BME280;33504;52.066;6.096;2023-03-04T05:45:42;102424.23;;;7.94;40.27
47742;BME280;33504;52.066;6.096;2023-03-04T05:48:09;102424.37;;;7.89;40.37
47742;BME280;33504;52.066;6.096;2023-03-04T05:50:36;102423.84;;;7.94;40.44
47742;BME280;33504;52.066;6.096;2023-03-04T05:53:03;102425.65;;;8.13;40.20
47742;BME280;33504;52.066;6.096;2023-03-04T05:55:30;102429.09;;;7.99;39.99
47742;BME280;33504;52.066;6.096;2023-03-04T05:57:57;102429.59;;;8.34;39.88
47742;BME280;33504;52.066;6.096;2023-03-04T06:00:24;102433.67;;;8.15;39.92
47742;BME280;33504;52.066;6.096;2023-03-04T06:02:52;102434.01;;;8.42;39.82
47742;BME280;33504;52.066;6.096;2023-03-04T06:05:19;102434.45;;;7.83;40.00
47742;BME280;33504;52.066;6.096;2023-03-04T06:07:46;102437.41;;;8.41;40.01
47742;BME280;33504;52.066;6.096;2023-03-04T06:10:16;102432.56;;;8.40;39.95
47742;BME280;33504;52.066;6.096;2023-03-04T06:12:43;102432.70;;;8.14;40.05
47742;BME280;33504;52.066;6.096;2023-03-04T06:15:11;102433.78;;;8.17;40.01
47742;BME280;33504;52.066;6.096;2023-03-04T06:17:39;102437.35;;;8.35;40.20
47742;BME280;33504;52.066;6.096;2023-03-04T06:20:07;102438.44;;;8.07;40.34
47742;BME280;33504;52.066;6.096;2023-03-04T06:22:34;102437.85;;;8.35;40.28
47742;BME280;33504;52.066;6.096;2023-03-04T06:25:01;102440.18;;;8.31;40.47
47742;BME280;33504;52.066;6.096;2023-03-04T06:27:28;102439.95;;;8.27;40.57
47742;BME280;33504;52.066;6.096;2023-03-04T06:29:55;102440.64;;;8.36;40.44
47742;BME280;33504;52.066;6.096;2023-03-04T06:32:22;102440.97;;;7.97;40.56
47742;BME280;33504;52.066;6.096;2023-03-04T06:34:49;102442.48;;;8.19;40.68
47742;BME280;33504;52.066;6.096;2023-03-04T06:37:16;102446.98;;;7.88;40.74
47742;BME280;33504;52.066;6.096;2023-03-04T06:39:44;102445.88;;;8.22;40.60
47742;BME280;33504;52.066;6.096;2023-03-04T06:42:12;102446.38;;;8.12;40.79
47742;BME280;33504;52.066;6.096;2023-03-04T06:44:39;102448.28;;;7.77;41.23
47742;BME280;33504;52.066;6.096;2023-03-04T06:47:06;102445.93;;;7.88;41.15
47742;BME280;33504;52.066;6.096;2023-03-04T06:49:33;102448.13;;;7.88;41.43
47742;BME280;33504;52.066;6.096;2023-03-04T06:52:00;102449.03;;;8.14;41.55
47742;BME280;33504;52.066;6.096;2023-03-04T06:54:27;102451.48;;;7.63;41.85
47742;BME280;33504;52.066;6.096;2023-03-04T06:56:54;102452.29;;;8.02;41.65
47742;BME280;33504;52.066;6.096;2023-03-04T06:59:21;102453.46;;;8.30;41.71
47742;BME280;33504;52.066;6.096;2023-03-04T07:01:48;102452.35;;;8.28;41.80
47742;BME280;33504;52.066;6.096;2023-03-04T07:04:16;102452.44;;;8.35;41.58
47742;BME280;33504;52.066;6.096;2023-03-04T07:06:43;102449.12;;;7.84;41.74
47742;BME280;33504;52.066;6.096;2023-03-04T07:09:10;102444.36;;;8.31;41.92
47742;BME280;33504;52.066;6.096;2023-03-04T07:11:37;102446.19;;;8.45;41.62
47742;BME280;33504;52.066;6.096;2023-03-04T07:14:04;102449.09;;;8.38;41.73
47742;BME280;33504;52.066;6.096;2023-03-04T07:16:31;102447.67;;;7.95;41.78
47742;BME280;33504;52.066;6.096;2023-03-04T07:18:58;102450.70;;;8.07;41.63
47742;BME280;33504;52.066;6.096;2023-03-04T07:21:25;102451.26;;;8.03;41.77
47742;BME280;33504;52.066;6.096;2023-03-04T07:23:52;102454.05;;;8.42;41.64
47742;BME280;33504;52.066;6.096;2023-03-04T07:26:19;102453.87;;;8.39;41.73
47742;BME280;33504;52.066;6.096;2023-03-04T07:28:46;102454.96;;;8.42;41.90
47742;BME280;33504;52.066;6.096;2023-03-04T07:31:20;102457.15;;;8.44;41.80
47742;BME280;33504;52.066;6.096;2023-03-04T07:33:47;102459.47;;;8.44;42.01
47742;BME280;33504;52.066;6.096;2023-03-04T07:36:15;102458.29;;;8.51;41.86
47742;BME280;33504;52.066;6.096;2023-03-04T07:38:43;102456.83;;;8.71;41.52
47742;BME280;33504;52.066;6.096;2023-03-04T07:41:11;102453.11;;;8.31;41.89
47742;BME280;33504;52.066;6.096;2023-03-04T07:43:37;102455.84;;;8.28;41.78
47742;BME280;33504;52.066;6.096;2023-03-04T07:46:04;102455.00;;;8.47;41.37
47742;BME280;33504;52.066;6.096;2023-03-04T07:48:31;102452.39;;;8.61;41.20
47742;BME280;33504;52.066;6.096;2023-03-04T07:51:03;102459.80;;;8.42;41.42
47742;BME280;33504;52.066;6.096;2023-03-04T07:53:32;102459.95;;;8.40;41.59
47742;BME280;33504;52.066;6.096;2023-03-04T07:55:59;102462.16;;;8.35;41.81
47742;BME280;33504;52.066;6.096;2023-03-04T07:58:26;102456.03;;;8.61;41.28
47742;BME280;33504;52.066;6.096;2023-03-04T08:00:53;102458.54;;;8.57;41.39
47742;BME280;33504;52.066;6.096;2023-03-04T08:03:19;102464.29;;;8.20;42.10
47742;BME280;33504;52.066;6.096;2023-03-04T08:05:46;102462.12;;;8.25;42.91
47742;BME280;33504;52.066;6.096;2023-03-04T08:08:13;102464.99;;;8.09;43.20
47742;BME280;33504;52.066;6.096;2023-03-04T08:10:40;102462.56;;;8.61;42.42
47742;BME280;33504;52.066;6.096;2023-03-04T08:13:07;102463.65;;;8.80;41.99
47742;BME280;33504;52.066;6.096;2023-03-04T08:15:39;102462.85;;;8.53;42.09
47742;BME280;33504;52.066;6.096;2023-03-04T08:18:07;102465.83;;;8.87;41.92
47742;BME280;33504;52.066;6.096;2023-03-04T08:20:34;102465.00;;;8.87;41.92
47742;BME280;33504;52.066;6.096;2023-03-04T08:23:01;102467.97;;;8.57;41.96
47742;BME280;33504;52.066;6.096;2023-03-04T08:25:27;102467.39;;;8.75;42.29
47742;BME280;33504;52.066;6.096;2023-03-04T08:27:54;102469.95;;;8.79;42.48
47742;BME280;33504;52.066;6.096;2023-03-04T08:30:21;102471.65;;;8.85;42.27
47742;BME280;33504;52.066;6.096;2023-03-04T08:32:48;102475.44;;;8.93;42.15
47742;BME280;33504;52.066;6.096;2023-03-04T08:35:15;102474.98;;;9.07;41.90
47742;BME280;33504;52.066;6.096;2023-03-04T08:37:42;102475.11;;;8.91;42.19
47742;BME280;33504;52.066;6.096;2023-03-04T08:40:10;102471.96;;;9.00;42.12
47742;BME280;33504;52.066;6.096;2023-03-04T08:42:37;102472.53;;;9.03;42.31
47742;BME280;33504;52.066;6.096;2023-03-04T08:45:06;102474.99;;;9.34;41.88
47742;BME280;33504;52.066;6.096;2023-03-04T08:47:33;102473.52;;;9.26;41.61
47742;BME280;33504;52.066;6.096;2023-03-04T08:50:00;102476.60;;;9.51;41.27
47742;BME280;33504;52.066;6.096;2023-03-04T08:52:28;102477.43;;;9.60;41.15
47742;BME280;33504;52.066;6.096;2023-03-04T08:54:56;102474.70;;;9.69;41.00
47742;BME280;33504;52.066;6.096;2023-03-04T08:57:23;102477.03;;;9.62;41.22
47742;BME280;33504;52.066;6.096;2023-03-04T08:59:50;102481.12;;;9.42;41.02
47742;BME280;33504;52.066;6.096;2023-03-04T09:02:17;102478.27;;;9.79;40.88
47742;BME280;33504;52.066;6.096;2023-03-04T09:04:44;102475.52;;;9.63;41.24
47742;BME280;33504;52.066;6.096;2023-03-04T09:07:11;102477.72;;;9.23;41.65
47742;BME280;33504;52.066;6.096;2023-03-04T09:09:37;102480.39;;;9.72;41.38
47742;BME280;33504;52.066;6.096;2023-03-04T09:12:05;102476.03;;;9.47;41.78
47742;BME280;33504;52.066;6.096;2023-03-04T09:14:33;102474.65;;;9.31;41.89
47742;BME280;33504;52.066;6.096;2023-03-04T09:17:00;102476.34;;;9.46;41.75
47742;BME280;33504;52.066;6.096;2023-03-04T09:19:27;102470.27;;;9.76;41.61
47742;BME280;33504;52.066;6.096;2023-03-04T09:21:54;102471.16;;;9.71;41.74
47742;BME280;33504;52.066;6.096;2023-03-04T09:24:20;102470.59;;;9.87;41.61
47742;BME280;33504;52.066;6.096;2023-03-04T09:26:49;102468.64;;;9.72;41.81
47742;BME280;33504;52.066;6.096;2023-03-04T09:29:17;102466.68;;;9.79;42.40
47742;BME280;33504;52.066;6.096;2023-03-04T09:31:44;102466.67;;;9.44;42.72
47742;BME280;33504;52.066;6.096;2023-03-04T09:34:11;102461.68;;;9.58;42.59
47742;BME280;33504;52.066;6.096;2023-03-04T09:36:39;102460.88;;;10.23;42.38
47742;BME280;33504;52.066;6.096;2023-03-04T09:39:06;102452.51;;;10.19;41.87
47742;BME280;33504;52.066;6.096;2023-03-04T09:41:38;102449.34;;;10.28;41.32
47742;BME280;33504;52.066;6.096;2023-03-04T09:44:14;102449.54;;;10.45;41.06
47742;BME280;33504;52.066;6.096;2023-03-04T09:46:44;102450.90;;;10.23;41.40
47742;BME280;33504;52.066;6.096;2023-03-04T09:49:13;102452.12;;;9.74;41.94
47742;BME280;33504;52.066;6.096;2023-03-04T09:51:48;102450.60;;;9.97;42.13
47742;BME280;33504;52.066;6.096;2023-03-04T09:54:29;102443.74;;;9.83;42.31
47742;BME280;33504;52.066;6.096;2023-03-04T09:57:12;102442.18;;;10.40;41.82
47742;BME280;33504;52.066;6.096;2023-03-04T09:59:46;102438.10;;;10.96;41.24
47742;BME280;33504;52.066;6.096;2023-03-04T10:02:22;102434.21;;;11.21;40.96
47742;BME280;33504;52.066;6.096;2023-03-04T10:04:56;102429.72;;;10.86;40.03
47742;BME280;33504;52.066;6.096;2023-03-04T10:07:30;102429.07;;;10.94;39.35
47742;BME280;33504;52.066;6.096;2023-03-04T10:10:03;102426.85;;;10.60;39.80
47742;BME280;33504;52.066;6.096;2023-03-04T10:12:33;102420.86;;;10.74;39.70
47742;BME280;33504;52.066;6.096;2023-03-04T10:15:05;102426.57;;;10.24;39.93
47742;BME280;33504;52.066;6.096;2023-03-04T10:17:35;102424.08;;;10.78;39.85
47742;BME280;33504;52.066;6.096;2023-03-04T10:20:06;102428.76;;;10.75;39.81
47742;BME280;33504;52.066;6.096;2023-03-04T10:22:42;102425.28;;;10.51;39.83
47742;BME280;33504;52.066;6.096;2023-03-04T10:25:16;102431.62;;;10.47;40.73
47742;BME280;33504;52.066;6.096;2023-03-04T10:27:49;102434.68;;;9.77;42.05
47742;BME280;33504;52.066;6.096;2023-03-04T10:30:29;102437.18;;;10.27;42.00
47742;BME280;33504;52.066;6.096;2023-03-04T10:32:57;102436.25;;;10.02;43.00
47742;BME280;33504;52.066;6.096;2023-03-04T10:35:30;102438.84;;;9.92;43.65
47742;BME280;33504;52.066;6.096;2023-03-04T10:38:01;102434.37;;;10.25;43.31
47742;BME280;33504;52.066;6.096;2023-03-04T10:40:37;102438.62;;;9.92;44.00
47742;BME280;33504;52.066;6.096;2023-03-04T10:43:04;102439.02;;;9.87;44.29
47742;BME280;33504;52.066;6.096;2023-03-04T10:45:31;102437.01;;;9.69;44.26
47742;BME280;33504;52.066;6.096;2023-03-04T10:47:59;102432.52;;;9.72;44.31
47742;BME280;33504;52.066;6.096;2023-03-04T10:50:27;102428.88;;;9.58;44.67
47742;BME280;33504;52.066;6.096;2023-03-04T10:52:55;102427.80;;;10.03;44.33
47742;BME280;33504;52.066;6.096;2023-03-04T10:55:24;102424.12;;;10.81;43.62
47742;BME280;33504;52.066;6.096;2023-03-04T10:58:00;102421.83;;;11.12;42.44
47742;BME280;33504;52.066;6.096;2023-03-04T11:00:30;102416.27;;;11.53;41.29
47742;BME280;33504;52.066;6.096;2023-03-04T11:03:23;102420.40;;;11.57;41.07
47742;BME280;33504;52.066;6.096;2023-03-04T11:05:51;102414.20;;;11.71;40.81
47742;BME280;33504;52.066;6.096;2023-03-04T11:08:29;102408.00;;;11.73;40.87
47742;BME280;33504;52.066;6.096;2023-03-04T11:10:56;102405.26;;;11.65;40.25
47742;BME280;33504;52.066;6.096;2023-03-04T11:13:24;102409.09;;;11.81;40.04
47742;BME280;33504;52.066;6.096;2023-03-04T11:15:54;102408.88;;;11.60;40.37
47742;BME280;33504;52.066;6.096;2023-03-04T11:18:26;102407.62;;;11.51;40.34
47742;BME280;33504;52.066;6.096;2023-03-04T11:20:54;102407.68;;;11.55;40.69
47742;BME280;33504;52.066;6.096;2023-03-04T11:23:30;102410.00;;;11.32;40.90
47742;BME280;33504;52.066;6.096;2023-03-04T11:26:01;102410.65;;;10.90;42.48
47742;BME280;33504;52.066;6.096;2023-03-04T11:28:38;102412.46;;;10.70;43.52
47742;BME280;33504;52.066;6.096;2023-03-04T11:31:13;102410.44;;;10.72;43.81
47742;BME280;33504;52.066;6.096;2023-03-04T11:33:45;102403.33;;;10.92;43.88
47742;BME280;33504;52.066;6.096;2023-03-04T11:36:24;102401.86;;;11.03;44.10
47742;BME280;33504;52.066;6.096;2023-03-04T11:38:53;102401.06;;;11.56;44.29
47742;BME280;33504;52.066;6.096;2023-03-04T11:41:24;102398.92;;;11.64;43.68
47742;BME280;33504;52.066;6.096;2023-03-04T11:43:54;102398.23;;;10.94;43.64
47742;BME280;33504;52.066;6.096;2023-03-04T11:46:37;102400.55;;;11.04;43.45
47742;BME280;33504;52.066;6.096;2023-03-04T11:49:26;102400.35;;;10.67;43.53
47742;BME280;33504;52.066;6.096;2023-03-04T11:52:01;102395.70;;;10.59;43.68
47742;BME280;33504;52.066;6.096;2023-03-04T11:54:36;102390.66;;;10.53;43.94
47742;BME280;33504;52.066;6.096;2023-03-04T11:57:09;102392.15;;;10.91;44.42
47742;BME280;33504;52.066;6.096;2023-03-04T11:59:52;102389.34;;;10.78;44.57
47742;BME280;33504;52.066;6.096;2023-03-04T12:02:27;102383.98;;;10.71;45.00
47742;BME280;33504;52.066;6.096;2023-03-04T12:05:10;102381.46;;;10.57;44.84
47742;BME280;33504;52.066;6.096;2023-03-04T12:08:05;102377.19;;;10.18;45.69
47742;BME280;33504;52.066;6.096;2023-03-04T12:10:40;102377.38;;;10.63;44.73
47742;BME280;33504;52.066;6.096;2023-03-04T12:13:30;102374.83;;;10.71;45.03
47742;BME280;33504;52.066;6.096;2023-03-04T12:16:11;102365.10;;;10.63;45.01
47742;BME280;33504;52.066;6.096;2023-03-04T12:18:53;102365.16;;;10.68;44.79
47742;BME280;33504;52.066;6.096;2023-03-04T12:21:45;102364.32;;;10.59;44.49
47742;BME280;33504;52.066;6.096;2023-03-04T12:24:35;102373.16;;;10.46;44.71
47742;BME280;33504;52.066;6.096;2023-03-04T12:27:21;102371.08;;;10.04;44.16
47742;BME280;33504;52.066;6.096;2023-03-04T12:29:58;102370.07;;;9.94;44.24
47742;BME280;33504;52.066;6.096;2023-03-04T12:32:37;102366.44;;;10.31;43.80
47742;BME280;33504;52.066;6.096;2023-03-04T12:35:31;102365.59;;;9.65;43.65
47742;BME280;33504;52.066;6.096;2023-03-04T12:38:18;102366.90;;;9.90;43.55
47742;BME280;33504;52.066;6.096;2023-03-04T12:40:57;102364.19;;;9.91;43.27
47742;BME280;33504;52.066;6.096;2023-03-04T12:43:41;102362.89;;;9.45;43.22
47742;BME280;33504;52.066;6.096;2023-03-04T12:46:25;102362.59;;;9.91;42.96
47742;BME280;33504;52.066;6.096;2023-03-04T12:49:13;102359.44;;;10.20;42.84
47742;BME280;33504;52.066;6.096;2023-03-04T12:51:50;102356.23;;;10.15;42.77
47742;BME280;33504;52.066;6.096;2023-03-04T12:54:30;102356.47;;;10.23;42.69
47742;BME280;33504;52.066;6.096;2023-03-04T12:57:05;102350.31;;;10.36;42.74
47742;BME280;33504;52.066;6.096;2023-03-04T12:59:39;102344.93;;;10.12;43.10
47742;BME280;33504;52.066;6.096;2023-03-04T13:02:29;102344.88;;;10.15;42.93
47742;BME280;33504;52.066;6.096;2023-03-04T13:05:07;102344.81;;;10.78;42.30
47742;BME280;33504;52.066;6.096;2023-03-04T13:07:46;102337.85;;;10.39;42.33
47742;BME280;33504;52.066;6.096;2023-03-04T13:10:18;102332.45;;;10.95;41.87